sensor_id;sensor_type;location;lat;lon;timestamp;P1;durP1;ratioP1;P2;durP2;ratioP2
64881;SDS011;51375;44.836;38.672;2023-11-18T00:01:10;5.55;;;3.55;;
64881;SDS011;51375;44.836;38.672;2023-11-18T00:03:35;5.75;;;3.58;;
64881;SDS011;51375;44.836;38.672;2023-11-18T00:06:01;5.82;;;3.67;;
64881;SDS011;51375;44.836;38.672;2023-11-18T00:08:28;5.93;;;3.65;;
64881;SDS011;51375;44.836;38.672;2023-11-18T00:10:54;6.43;;;3.78;;
64881;SDS011;51375;44.836;38.672;2023-11-18T00:13:20;7.35;;;4.10;;
64881;SDS011;51375;44.836;38.672;2023-11-18T00:15:46;8.38;;;4.40;;
64881;SDS011;51375;44.836;38.672;2023-11-18T00:18:13;8.73;;;4.80;;
64881;SDS011;51375;44.836;38.672;2023-11-18T00:20:39;10.20;;;4.80;;
64881;SDS011;51375;44.836;38.672;2023-11-18T00:23:05;7.30;;;4.75;;
64881;SDS011;51375;44.836;38.672;2023-11-18T00:25:31;7.32;;;5.00;;
64881;SDS011;51375;44.836;38.672;2023-11-18T00:27:59;9.27;;;4.57;;
64881;SDS011;51375;44.836;38.672;2023-11-18T00:30:25;15.07;;;4.97;;
64881;SDS011;51375;44.836;38.672;2023-11-18T00:32:51;10.63;;;4.50;;
64881;SDS011;51375;44.836;38.672;2023-11-18T00:35:17;9.18;;;4.60;;
64881;SDS011;51375;44.836;38.672;2023-11-18T00:37:43;11.23;;;4.68;;
64881;SDS011;51375;44.836;38.672;2023-11-18T00:40:09;8.93;;;5.55;;
64881;SDS011;51375;44.836;38.672;2023-11-18T00:42:37;12.05;;;4.85;;
64881;SDS011;51375;44.836;38.672;2023-11-18T00:45:05;10.50;;;4.97;;
64881;SDS011;51375;44.836;38.672;2023-11-18T00:47:33;11.85;;;4.20;;
64881;SDS011;51375;44.836;38.672;2023-11-18T00:49:59;16.17;;;4.68;;
64881;SDS011;51375;44.836;38.672;2023-11-18T00:52:27;17.75;;;5.70;;
64881;SDS011;51375;44.836;38.672;2023-11-18T00:54:53;9.23;;;4.68;;
64881;SDS011;51375;44.836;38.672;2023-11-18T00:57:19;9.80;;;5.05;;
64881;SDS011;51375;44.836;38.672;2023-11-18T00:59:46;16.00;;;5.45;;
64881;SDS011;51375;44.836;38.672;2023-11-18T01:02:12;12.45;;;5.32;;
64881;SDS011;51375;44.836;38.672;2023-11-18T01:04:38;10.23;;;5.03;;
64881;SDS011;51375;44.836;38.672;2023-11-18T01:07:04;8.82;;;4.97;;
64881;SDS011;51375;44.836;38.672;2023-11-18T01:09:30;7.85;;;4.75;;
64881;SDS011;51375;44.836;38.672;2023-11-18T01:12:02;8.98;;;4.90;;
64881;SDS011;51375;44.836;38.672;2023-11-18T01:14:29;9.38;;;4.88;;
64881;SDS011;51375;44.836;38.672;2023-11-18T01:16:55;11.63;;;4.55;;
64881;SDS011;51375;44.836;38.672;2023-11-18T01:19:21;10.68;;;4.85;;
64881;SDS011;51375;44.836;38.672;2023-11-18T01:21:47;11.43;;;4.50;;
64881;SDS011;51375;44.836;38.672;2023-11-18T01:24:13;9.27;;;4.20;;
64881;SDS011;51375;44.836;38.672;2023-11-18T01:26:39;9.60;;;5.45;;
64881;SDS011;51375;44.836;38.672;2023-11-18T01:29:05;10.73;;;4.90;;
64881;SDS011;51375;44.836;38.672;2023-11-18T01:31:31;7.22;;;4.40;;
64881;SDS011;51375;44.836;38.672;2023-11-18T01:33:57;10.93;;;4.18;;
64881;SDS011;51375;44.836;38.672;2023-11-18T01:36:23;5.90;;;4.07;;
64881;SDS011;51375;44.836;38.672;2023-11-18T01:38:50;11.50;;;4.63;;
64881;SDS011;51375;44.836;38.672;2023-11-18T01:41:16;8.23;;;5.28;;
64881;SDS011;51375;44.836;38.672;2023-11-18T01:43:47;10.32;;;5.18;;
64881;SDS011;51375;44.836;38.672;2023-11-18T01:46:13;10.30;;;4.65;;
64881;SDS011;51375;44.836;38.672;2023-11-18T01:48:39;6.88;;;4.50;;
64881;SDS011;51375;44.836;38.672;2023-11-18T01:51:07;7.25;;;4.03;;
64881;SDS011;51375;44.836;38.672;2023-11-18T01:53:38;10.27;;;4.35;;
64881;SDS011;51375;44.836;38.672;2023-11-18T01:56:05;7.15;;;4.30;;
64881;SDS011;51375;44.836;38.672;2023-11-18T01:58:34;11.30;;;4.95;;
64881;SDS011;51375;44.836;38.672;2023-11-18T02:01:01;9.77;;;4.75;;
64881;SDS011;51375;44.836;38.672;2023-11-18T02:03:28;7.90;;;4.53;;
64881;SDS011;51375;44.836;38.672;2023-11-18T02:05:56;8.77;;;4.03;;
64881;SDS011;51375;44.836;38.672;2023-11-18T02:08:22;7.40;;;4.50;;
64881;SDS011;51375;44.836;38.672;2023-11-18T02:10:54;9.05;;;4.20;;
64881;SDS011;51375;44.836;38.672;2023-11-18T02:13:29;12.55;;;4.68;;
64881;SDS011;51375;44.836;38.672;2023-11-18T02:15:59;6.43;;;4.20;;
64881;SDS011;51375;44.836;38.672;2023-11-18T02:18:29;12.88;;;4.78;;
64881;SDS011;51375;44.836;38.672;2023-11-18T02:20:55;10.27;;;5.00;;
64881;SDS011;51375;44.836;38.672;2023-11-18T02:23:25;11.25;;;4.80;;
64881;SDS011;51375;44.836;38.672;2023-11-18T02:25:53;11.45;;;4.72;;
64881;SDS011;51375;44.836;38.672;2023-11-18T02:28:23;10.25;;;4.95;;
64881;SDS011;51375;44.836;38.672;2023-11-18T02:30:53;10.63;;;4.40;;
64881;SDS011;51375;44.836;38.672;2023-11-18T02:33:38;9.40;;;5.15;;
64881;SDS011;51375;44.836;38.672;2023-11-18T02:36:18;8.48;;;4.45;;
64881;SDS011;51375;44.836;38.672;2023-11-18T02:38:49;8.73;;;4.82;;
64881;SDS011;51375;44.836;38.672;2023-11-18T02:41:16;7.40;;;4.38;;
64881;SDS011;51375;44.836;38.672;2023-11-18T02:43:44;9.38;;;5.57;;
64881;SDS011;51375;44.836;38.672;2023-11-18T02:46:10;10.63;;;4.45;;
64881;SDS011;51375;44.836;38.672;2023-11-18T02:48:39;12.18;;;4.72;;
64881;SDS011;51375;44.836;38.672;2023-11-18T02:51:07;10.85;;;4.88;;
64881;SDS011;51375;44.836;38.672;2023-11-18T02:53:33;11.05;;;5.13;;
64881;SDS011;51375;44.836;38.672;2023-11-18T02:56:00;11.45;;;5.13;;
64881;SDS011;51375;44.836;38.672;2023-11-18T02:58:30;9.13;;;4.97;;
64881;SDS011;51375;44.836;38.672;2023-11-18T03:00:56;13.13;;;5.28;;
64881;SDS011;51375;44.836;38.672;2023-11-18T03:03:25;8.02;;;4.68;;
64881;SDS011;51375;44.836;38.672;2023-11-18T03:05:52;7.78;;;4.28;;
64881;SDS011;51375;44.836;38.672;2023-11-18T03:08:18;9.18;;;4.20;;
64881;SDS011;51375;44.836;38.672;2023-11-18T03:10:44;6.50;;;4.25;;
64881;SDS011;51375;44.836;38.672;2023-11-18T03:13:10;8.00;;;4.20;;
64881;SDS011;51375;44.836;38.672;2023-11-18T03:15:37;5.80;;;4.10;;
64881;SDS011;51375;44.836;38.672;2023-11-18T03:18:04;7.63;;;3.55;;
64881;SDS011;51375;44.836;38.672;2023-11-18T03:20:32;6.53;;;3.92;;
64881;SDS011;51375;44.836;38.672;2023-11-18T03:22:59;9.15;;;4.10;;
64881;SDS011;51375;44.836;38.672;2023-11-18T03:25:28;5.47;;;3.83;;
64881;SDS011;51375;44.836;38.672;2023-11-18T03:27:54;7.45;;;3.85;;
64881;SDS011;51375;44.836;38.672;2023-11-18T03:30:20;6.65;;;3.78;;
64881;SDS011;51375;44.836;38.672;2023-11-18T03:32:46;7.05;;;4.00;;
64881;SDS011;51375;44.836;38.672;2023-11-18T03:35:12;4.95;;;4.00;;
64881;SDS011;51375;44.836;38.672;2023-11-18T03:37:38;8.65;;;3.72;;
64881;SDS011;51375;44.836;38.672;2023-11-18T03:40:13;6.72;;;3.85;;
64881;SDS011;51375;44.836;38.672;2023-11-18T03:42:43;8.00;;;3.47;;
64881;SDS011;51375;44.836;38.672;2023-11-18T03:45:11;8.00;;;4.13;;
64881;SDS011;51375;44.836;38.672;2023-11-18T03:47:40;9.30;;;4.43;;
64881;SDS011;51375;44.836;38.672;2023-11-18T03:50:06;6.50;;;3.92;;
64881;SDS011;51375;44.836;38.672;2023-11-18T03:52:38;10.25;;;4.53;;
64881;SDS011;51375;44.836;38.672;2023-11-18T03:55:04;6.38;;;4.32;;
64881;SDS011;51375;44.836;38.672;2023-11-18T03:57:31;8.75;;;4.40;;
64881;SDS011;51375;44.836;38.672;2023-11-18T03:59:57;8.95;;;3.95;;
64881;SDS011;51375;44.836;38.672;2023-11-18T04:02:24;6.15;;;4.40;;
64881;SDS011;51375;44.836;38.672;2023-11-18T04:04:51;8.45;;;4.43;;
64881;SDS011;51375;44.836;38.672;2023-11-18T04:07:17;5.93;;;4.18;;
64881;SDS011;51375;44.836;38.672;2023-11-18T04:09:43;8.90;;;4.30;;
64881;SDS011;51375;44.836;38.672;2023-11-18T04:12:09;6.07;;;3.90;;
64881;SDS011;51375;44.836;38.672;2023-11-18T04:14:36;10.95;;;4.88;;
64881;SDS011;51375;44.836;38.672;2023-11-18T04:17:02;7.93;;;4.30;;
64881;SDS011;51375;44.836;38.672;2023-11-18T04:19:29;8.48;;;5.03;;
64881;SDS011;51375;44.836;38.672;2023-11-18T04:21:54;8.40;;;4.35;;
64881;SDS011;51375;44.836;38.672;2023-11-18T04:24:20;7.97;;;4.97;;
64881;SDS011;51375;44.836;38.672;2023-11-18T04:26:46;8.68;;;4.35;;
64881;SDS011;51375;44.836;38.672;2023-11-18T04:29:13;7.38;;;4.57;;
64881;SDS011;51375;44.836;38.672;2023-11-18T04:31:39;9.35;;;5.38;;
64881;SDS011;51375;44.836;38.672;2023-11-18T04:34:05;7.75;;;4.55;;
64881;SDS011;51375;44.836;38.672;2023-11-18T04:36:31;11.75;;;4.97;;
64881;SDS011;51375;44.836;38.672;2023-11-18T04:38:57;9.05;;;4.60;;
64881;SDS011;51375;44.836;38.672;2023-11-18T04:41:23;8.27;;;4.50;;
64881;SDS011;51375;44.836;38.672;2023-11-18T04:43:49;6.30;;;4.07;;
64881;SDS011;51375;44.836;38.672;2023-11-18T04:46:15;8.65;;;5.05;;
64881;SDS011;51375;44.836;38.672;2023-11-18T04:48:42;8.23;;;4.78;;
64881;SDS011;51375;44.836;38.672;2023-11-18T04:51:08;10.32;;;5.05;;
64881;SDS011;51375;44.836;38.672;2023-11-18T04:53:34;7.32;;;4.57;;
64881;SDS011;51375;44.836;38.672;2023-11-18T04:56:00;8.70;;;5.32;;
64881;SDS011;51375;44.836;38.672;2023-11-18T04:58:26;7.28;;;4.45;;
64881;SDS011;51375;44.836;38.672;2023-11-18T05:00:52;7.70;;;4.40;;
64881;SDS011;51375;44.836;38.672;2023-11-18T05:03:18;7.93;;;4.63;;
64881;SDS011;51375;44.836;38.672;2023-11-18T05:05:44;9.27;;;4.47;;
64881;SDS011;51375;44.836;38.672;2023-11-18T05:08:19;8.70;;;4.75;;
64881;SDS011;51375;44.836;38.672;2023-11-18T05:10:49;9.90;;;4.75;;
64881;SDS011;51375;44.836;38.672;2023-11-18T05:13:15;7.18;;;4.65;;
64881;SDS011;51375;44.836;38.672;2023-11-18T05:15:43;9.15;;;5.22;;
64881;SDS011;51375;44.836;38.672;2023-11-18T05:18:11;7.93;;;4.57;;
64881;SDS011;51375;44.836;38.672;2023-11-18T05:20:40;8.55;;;5.00;;
64881;SDS011;51375;44.836;38.672;2023-11-18T05:23:07;7.15;;;4.82;;
64881;SDS011;51375;44.836;38.672;2023-11-18T05:25:36;8.50;;;5.03;;
64881;SDS011;51375;44.836;38.672;2023-11-18T05:28:02;5.72;;;4.53;;
64881;SDS011;51375;44.836;38.672;2023-11-18T05:30:30;8.05;;;4.60;;
64881;SDS011;51375;44.836;38.672;2023-11-18T05:32:56;7.10;;;4.75;;
64881;SDS011;51375;44.836;38.672;2023-11-18T05:35:24;8.27;;;4.70;;
64881;SDS011;51375;44.836;38.672;2023-11-18T05:37:54;8.25;;;4.72;;
64881;SDS011;51375;44.836;38.672;2023-11-18T05:40:20;8.27;;;4.70;;
64881;SDS011;51375;44.836;38.672;2023-11-18T05:42:47;8.23;;;4.82;;
64881;SDS011;51375;44.836;38.672;2023-11-18T05:45:17;9.80;;;4.65;;
64881;SDS011;51375;44.836;38.672;2023-11-18T05:47:56;8.48;;;4.75;;
64881;SDS011;51375;44.836;38.672;2023-11-18T05:50:22;7.32;;;4.65;;
64881;SDS011;51375;44.836;38.672;2023-11-18T05:52:52;8.75;;;4.70;;
64881;SDS011;51375;44.836;38.672;2023-11-18T05:55:19;7.78;;;4.93;;
64881;SDS011;51375;44.836;38.672;2023-11-18T05:57:45;6.57;;;4.50;;
64881;SDS011;51375;44.836;38.672;2023-11-18T06:00:11;8.65;;;4.38;;
64881;SDS011;51375;44.836;38.672;2023-11-18T06:02:41;5.97;;;3.72;;
64881;SDS011;51375;44.836;38.672;2023-11-18T06:05:08;8.65;;;4.28;;
64881;SDS011;51375;44.836;38.672;2023-11-18T06:07:35;7.97;;;4.40;;
64881;SDS011;51375;44.836;38.672;2023-11-18T06:10:01;10.07;;;4.53;;
64881;SDS011;51375;44.836;38.672;2023-11-18T06:12:31;6.13;;;4.20;;
64881;SDS011;51375;44.836;38.672;2023-11-18T06:14:57;6.72;;;4.13;;
64881;SDS011;51375;44.836;38.672;2023-11-18T06:17:24;8.65;;;4.68;;
64881;SDS011;51375;44.836;38.672;2023-11-18T06:19:50;7.97;;;4.80;;
64881;SDS011;51375;44.836;38.672;2023-11-18T06:22:16;7.68;;;3.92;;
64881;SDS011;51375;44.836;38.672;2023-11-18T06:24:42;7.72;;;4.47;;
64881;SDS011;51375;44.836;38.672;2023-11-18T06:27:08;5.57;;;4.05;;
64881;SDS011;51375;44.836;38.672;2023-11-18T06:29:35;9.50;;;5.03;;
64881;SDS011;51375;44.836;38.672;2023-11-18T06:32:01;6.78;;;4.22;;
64881;SDS011;51375;44.836;38.672;2023-11-18T06:34:27;9.68;;;4.28;;
64881;SDS011;51375;44.836;38.672;2023-11-18T06:36:53;6.22;;;4.28;;
64881;SDS011;51375;44.836;38.672;2023-11-18T06:39:19;9.05;;;3.17;;
64881;SDS011;51375;44.836;38.672;2023-11-18T06:41:47;7.30;;;3.95;;
64881;SDS011;51375;44.836;38.672;2023-11-18T06:44:18;6.88;;;3.83;;
64881;SDS011;51375;44.836;38.672;2023-11-18T06:46:49;7.53;;;4.20;;
64881;SDS011;51375;44.836;38.672;2023-11-18T06:49:16;7.55;;;4.50;;
64881;SDS011;51375;44.836;38.672;2023-11-18T06:51:43;6.70;;;4.15;;
64881;SDS011;51375;44.836;38.672;2023-11-18T06:54:10;7.18;;;4.95;;
64881;SDS011;51375;44.836;38.672;2023-11-18T06:56:39;6.80;;;4.05;;
64881;SDS011;51375;44.836;38.672;2023-11-18T06:59:09;6.15;;;3.88;;
64881;SDS011;51375;44.836;38.672;2023-11-18T07:01:38;6.38;;;3.97;;
64881;SDS011;51375;44.836;38.672;2023-11-18T07:04:06;7.80;;;4.40;;
64881;SDS011;51375;44.836;38.672;2023-11-18T07:06:35;6.75;;;3.78;;
64881;SDS011;51375;44.836;38.672;2023-11-18T07:09:05;2.90;;;2.17;;
64881;SDS011;51375;44.836;38.672;2023-11-18T07:11:42;12.20;;;4.43;;
64881;SDS011;51375;44.836;38.672;2023-11-18T07:14:09;5.47;;;3.97;;
64881;SDS011;51375;44.836;38.672;2023-11-18T07:16:39;5.55;;;3.20;;
64881;SDS011;51375;44.836;38.672;2023-11-18T07:19:06;7.07;;;4.13;;
64881;SDS011;51375;44.836;38.672;2023-11-18T07:21:33;4.03;;;2.95;;
64881;SDS011;51375;44.836;38.672;2023-11-18T07:23:59;6.60;;;3.45;;
64881;SDS011;51375;44.836;38.672;2023-11-18T07:26:27;5.70;;;3.38;;
64881;SDS011;51375;44.836;38.672;2023-11-18T07:28:53;10.45;;;3.28;;
64881;SDS011;51375;44.836;38.672;2023-11-18T07:31:19;5.07;;;3.00;;
64881;SDS011;51375;44.836;38.672;2023-11-18T07:33:45;5.30;;;3.47;;
64881;SDS011;51375;44.836;38.672;2023-11-18T07:36:17;9.07;;;3.25;;
64881;SDS011;51375;44.836;38.672;2023-11-18T07:38:45;7.10;;;3.63;;
64881;SDS011;51375;44.836;38.672;2023-11-18T07:41:11;7.93;;;3.92;;
64881;SDS011;51375;44.836;38.672;2023-11-18T07:43:49;4.30;;;3.15;;
64881;SDS011;51375;44.836;38.672;2023-11-18T07:46:20;5.93;;;3.20;;
64881;SDS011;51375;44.836;38.672;2023-11-18T07:48:52;5.18;;;3.10;;
64881;SDS011;51375;44.836;38.672;2023-11-18T07:51:18;6.20;;;2.90;;
64881;SDS011;51375;44.836;38.672;2023-11-18T07:53:48;5.03;;;2.78;;
64881;SDS011;51375;44.836;38.672;2023-11-18T07:56:14;10.68;;;3.58;;
64881;SDS011;51375;44.836;38.672;2023-11-18T07:58:44;3.58;;;2.42;;
64881;SDS011;51375;44.836;38.672;2023-11-18T08:01:13;5.38;;;2.97;;
64881;SDS011;51375;44.836;38.672;2023-11-18T08:03:43;4.18;;;3.13;;
64881;SDS011;51375;44.836;38.672;2023-11-18T08:06:10;4.55;;;1.92;;
64881;SDS011;51375;44.836;38.672;2023-11-18T08:08:37;2.85;;;2.17;;
64881;SDS011;51375;44.836;38.672;2023-11-18T08:11:06;4.10;;;2.55;;
64881;SDS011;51375;44.836;38.672;2023-11-18T08:13:32;3.90;;;2.63;;
64881;SDS011;51375;44.836;38.672;2023-11-18T08:15:58;3.00;;;2.22;;
64881;SDS011;51375;44.836;38.672;2023-11-18T08:18:24;2.80;;;2.22;;
64881;SDS011;51375;44.836;38.672;2023-11-18T08:20:52;5.47;;;2.47;;
64881;SDS011;51375;44.836;38.672;2023-11-18T08:23:18;2.58;;;1.75;;
64881;SDS011;51375;44.836;38.672;2023-11-18T08:25:44;4.20;;;2.38;;
64881;SDS011;51375;44.836;38.672;2023-11-18T08:28:11;3.22;;;1.60;;
64881;SDS011;51375;44.836;38.672;2023-11-18T08:30:39;4.10;;;2.15;;
64881;SDS011;51375;44.836;38.672;2023-11-18T08:33:05;4.50;;;2.45;;
64881;SDS011;51375;44.836;38.672;2023-11-18T08:35:34;2.60;;;2.10;;
64881;SDS011;51375;44.836;38.672;2023-11-18T08:38:01;4.75;;;2.10;;
64881;SDS011;51375;44.836;38.672;2023-11-18T08:40:28;3.85;;;2.17;;
64881;SDS011;51375;44.836;38.672;2023-11-18T08:42:54;3.30;;;2.40;;
64881;SDS011;51375;44.836;38.672;2023-11-18T08:45:24;8.43;;;2.83;;
64881;SDS011;51375;44.836;38.672;2023-11-18T08:47:55;4.47;;;2.42;;
64881;SDS011;51375;44.836;38.672;2023-11-18T08:50:21;5.40;;;3.10;;
64881;SDS011;51375;44.836;38.672;2023-11-18T08:52:52;4.05;;;2.65;;
64881;SDS011;51375;44.836;38.672;2023-11-18T08:55:28;3.00;;;1.95;;
64881;SDS011;51375;44.836;38.672;2023-11-18T08:58:05;5.18;;;1.80;;
64881;SDS011;51375;44.836;38.672;2023-11-18T09:00:41;3.35;;;1.90;;
64881;SDS011;51375;44.836;38.672;2023-11-18T09:03:15;2.90;;;2.20;;
64881;SDS011;51375;44.836;38.672;2023-11-18T09:05:51;2.97;;;2.30;;
64881;SDS011;51375;44.836;38.672;2023-11-18T09:08:24;3.07;;;1.60;;
64881;SDS011;51375;44.836;38.672;2023-11-18T09:13:10;2.67;;;1.63;;
64881;SDS011;51375;44.836;38.672;2023-11-18T09:15:37;3.45;;;1.58;;
64881;SDS011;51375;44.836;38.672;2023-11-18T09:20:50;6.07;;;2.70;;
64881;SDS011;51375;44.836;38.672;2023-11-18T09:23:18;16.50;;;8.00;;
64881;SDS011;51375;44.836;38.672;2023-11-18T09:25:47;15.05;;;7.68;;
64881;SDS011;51375;44.836;38.672;2023-11-18T09:28:16;7.18;;;3.55;;
64881;SDS011;51375;44.836;38.672;2023-11-18T09:30:44;5.70;;;3.15;;
64881;SDS011;51375;44.836;38.672;2023-11-18T09:33:25;5.00;;;3.20;;
64881;SDS011;51375;44.836;38.672;2023-11-18T09:36:01;4.07;;;2.40;;
64881;SDS011;51375;44.836;38.672;2023-11-18T09:40:53;7.82;;;4.28;;
64881;SDS011;51375;44.836;38.672;2023-11-18T09:43:20;3.67;;;2.65;;
64881;SDS011;51375;44.836;38.672;2023-11-18T09:45:53;4.57;;;2.97;;
64881;SDS011;51375;44.836;38.672;2023-11-18T09:48:20;10.30;;;4.03;;
64881;SDS011;51375;44.836;38.672;2023-11-18T09:50:53;7.30;;;4.40;;
64881;SDS011;51375;44.836;38.672;2023-11-18T09:53:22;3.67;;;2.22;;
64881;SDS011;51375;44.836;38.672;2023-11-18T09:55:59;4.70;;;2.58;;
64881;SDS011;51375;44.836;38.672;2023-11-18T10:01:07;4.35;;;2.22;;
64881;SDS011;51375;44.836;38.672;2023-11-18T10:03:39;5.22;;;1.70;;
64881;SDS011;51375;44.836;38.672;2023-11-18T10:06:12;4.07;;;1.95;;
64881;SDS011;51375;44.836;38.672;2023-11-18T10:08:40;4.43;;;2.15;;
64881;SDS011;51375;44.836;38.672;2023-11-18T10:11:11;4.40;;;2.30;;
64881;SDS011;51375;44.836;38.672;2023-11-18T10:13:39;2.63;;;1.75;;
64881;SDS011;51375;44.836;38.672;2023-11-18T10:16:08;3.65;;;1.65;;
64881;SDS011;51375;44.836;38.672;2023-11-18T10:18:34;5.40;;;1.55;;
64881;SDS011;51375;44.836;38.672;2023-11-18T10:21:02;4.10;;;2.13;;
64881;SDS011;51375;44.836;38.672;2023-11-18T10:23:36;2.15;;;1.48;;
64881;SDS011;51375;44.836;38.672;2023-11-18T10:26:02;2.45;;;1.27;;
64881;SDS011;51375;44.836;38.672;2023-11-18T10:28:33;2.47;;;1.55;;
64881;SDS011;51375;44.836;38.672;2023-11-18T10:31:05;5.38;;;1.40;;
64881;SDS011;51375;44.836;38.672;2023-11-18T10:33:38;2.77;;;1.40;;
64881;SDS011;51375;44.836;38.672;2023-11-18T10:36:17;2.28;;;1.60;;
64881;SDS011;51375;44.836;38.672;2023-11-18T10:38:48;6.43;;;1.60;;
64881;SDS011;51375;44.836;38.672;2023-11-18T10:41:19;3.92;;;1.67;;
64881;SDS011;51375;44.836;38.672;2023-11-18T10:43:45;3.35;;;1.70;;
64881;SDS011;51375;44.836;38.672;2023-11-18T10:46:14;5.20;;;2.40;;
64881;SDS011;51375;44.836;38.672;2023-11-18T10:48:42;3.53;;;1.80;;
64881;SDS011;51375;44.836;38.672;2023-11-18T10:51:09;10.63;;;2.72;;
64881;SDS011;51375;44.836;38.672;2023-11-18T10:53:42;5.10;;;2.65;;
64881;SDS011;51375;44.836;38.672;2023-11-18T10:56:29;6.00;;;2.42;;
64881;SDS011;51375;44.836;38.672;2023-11-18T10:58:56;11.80;;;2.22;;
64881;SDS011;51375;44.836;38.672;2023-11-18T11:01:35;4.88;;;2.38;;
64881;SDS011;51375;44.836;38.672;2023-11-18T11:04:08;3.35;;;1.60;;
64881;SDS011;51375;44.836;38.672;2023-11-18T11:06:41;4.05;;;1.60;;
64881;SDS011;51375;44.836;38.672;2023-11-18T11:09:08;3.92;;;1.90;;
64881;SDS011;51375;44.836;38.672;2023-11-18T11:11:50;7.60;;;2.05;;
64881;SDS011;51375;44.836;38.672;2023-11-18T11:14:20;3.35;;;1.50;;
64881;SDS011;51375;44.836;38.672;2023-11-18T11:16:54;2.47;;;1.33;;
64881;SDS011;51375;44.836;38.672;2023-11-18T11:22:01;4.10;;;2.10;;
64881;SDS011;51375;44.836;38.672;2023-11-18T11:24:54;8.02;;;3.90;;
64881;SDS011;51375;44.836;38.672;2023-11-18T11:28:00;10.23;;;4.10;;
64881;SDS011;51375;44.836;38.672;2023-11-18T11:30:55;9.55;;;3.58;;
64881;SDS011;51375;44.836;38.672;2023-11-18T11:33:49;7.20;;;3.00;;
64881;SDS011;51375;44.836;38.672;2023-11-18T11:36:20;4.88;;;3.05;;
64881;SDS011;51375;44.836;38.672;2023-11-18T11:38:52;5.32;;;2.78;;
64881;SDS011;51375;44.836;38.672;2023-11-18T11:41:21;4.50;;;2.50;;
64881;SDS011;51375;44.836;38.672;2023-11-18T11:43:52;3.45;;;1.75;;
64881;SDS011;51375;44.836;38.672;2023-11-18T11:46:26;3.35;;;2.05;;
64881;SDS011;51375;44.836;38.672;2023-11-18T11:48:59;5.20;;;2.60;;
64881;SDS011;51375;44.836;38.672;2023-11-18T11:51:38;4.93;;;1.95;;
64881;SDS011;51375;44.836;38.672;2023-11-18T11:54:18;3.65;;;2.10;;
64881;SDS011;51375;44.836;38.672;2023-11-18T11:56:49;8.25;;;2.35;;
64881;SDS011;51375;44.836;38.672;2023-11-18T11:59:34;4.90;;;2.00;;
64881;SDS011;51375;44.836;38.672;2023-11-18T12:02:03;9.00;;;2.70;;
64881;SDS011;51375;44.836;38.672;2023-11-18T12:04:33;7.20;;;2.83;;
64881;SDS011;51375;44.836;38.672;2023-11-18T12:07:03;5.75;;;2.85;;
64881;SDS011;51375;44.836;38.672;2023-11-18T12:09:31;6.90;;;3.17;;
64881;SDS011;51375;44.836;38.672;2023-11-18T13:16:54;13.57;;;7.57;;
64881;SDS011;51375;44.836;38.672;2023-11-18T13:19:24;14.07;;;5.38;;
64881;SDS011;51375;44.836;38.672;2023-11-18T13:21:51;11.38;;;5.95;;
64881;SDS011;51375;44.836;38.672;2023-11-18T13:24:24;12.27;;;5.60;;
64881;SDS011;51375;44.836;38.672;2023-11-18T13:26:54;12.52;;;5.53;;
64881;SDS011;51375;44.836;38.672;2023-11-18T13:29:24;11.80;;;6.40;;
64881;SDS011;51375;44.836;38.672;2023-11-18T13:31:51;9.00;;;4.40;;
64881;SDS011;51375;44.836;38.672;2023-11-18T13:34:20;7.20;;;3.63;;
64881;SDS011;51375;44.836;38.672;2023-11-18T13:36:47;16.20;;;6.00;;
64881;SDS011;51375;44.836;38.672;2023-11-18T13:39:17;12.20;;;6.13;;
64881;SDS011;51375;44.836;38.672;2023-11-18T13:41:44;23.65;;;10.63;;
64881;SDS011;51375;44.836;38.672;2023-11-18T13:46:59;15.32;;;7.07;;
64881;SDS011;51375;44.836;38.672;2023-11-18T13:49:30;8.90;;;5.35;;
64881;SDS011;51375;44.836;38.672;2023-11-18T13:51:56;9.98;;;4.55;;
64881;SDS011;51375;44.836;38.672;2023-11-18T13:54:22;7.72;;;4.43;;
64881;SDS011;51375;44.836;38.672;2023-11-18T13:56:50;6.47;;;4.03;;
64881;SDS011;51375;44.836;38.672;2023-11-18T13:59:23;5.63;;;3.88;;
64881;SDS011;51375;44.836;38.672;2023-11-18T14:01:56;6.78;;;3.80;;
64881;SDS011;51375;44.836;38.672;2023-11-18T14:04:24;7.72;;;4.45;;
64881;SDS011;51375;44.836;38.672;2023-11-18T14:06:53;5.57;;;3.60;;
64881;SDS011;51375;44.836;38.672;2023-11-18T14:09:22;8.57;;;4.10;;
64881;SDS011;51375;44.836;38.672;2023-11-18T14:11:52;12.77;;;6.20;;
64881;SDS011;51375;44.836;38.672;2023-11-18T14:14:24;6.55;;;3.30;;
64881;SDS011;51375;44.836;38.672;2023-11-18T14:16:51;11.07;;;5.00;;
64881;SDS011;51375;44.836;38.672;2023-11-18T14:19:26;12.60;;;4.80;;
64881;SDS011;51375;44.836;38.672;2023-11-18T14:21:53;7.60;;;4.30;;
64881;SDS011;51375;44.836;38.672;2023-11-18T14:24:20;7.45;;;3.70;;
64881;SDS011;51375;44.836;38.672;2023-11-18T14:26:48;6.40;;;3.78;;
64881;SDS011;51375;44.836;38.672;2023-11-18T14:29:16;5.80;;;3.38;;
64881;SDS011;51375;44.836;38.672;2023-11-18T14:31:42;4.70;;;3.28;;
64881;SDS011;51375;44.836;38.672;2023-11-18T14:34:09;6.00;;;3.22;;
64881;SDS011;51375;44.836;38.672;2023-11-18T14:36:38;2.40;;;1.98;;
64881;SDS011;51375;44.836;38.672;2023-11-18T14:39:06;4.75;;;2.45;;
64881;SDS011;51375;44.836;38.672;2023-11-18T14:41:38;6.47;;;3.60;;
64881;SDS011;51375;44.836;38.672;2023-11-18T14:44:04;6.88;;;3.35;;
64881;SDS011;51375;44.836;38.672;2023-11-18T14:46:35;4.45;;;2.92;;
64881;SDS011;51375;44.836;38.672;2023-11-18T14:49:06;5.40;;;3.38;;
64881;SDS011;51375;44.836;38.672;2023-11-18T14:51:33;6.13;;;3.13;;
64881;SDS011;51375;44.836;38.672;2023-11-18T14:54:01;5.78;;;2.88;;
64881;SDS011;51375;44.836;38.672;2023-11-18T14:56:28;5.40;;;3.65;;
64881;SDS011;51375;44.836;38.672;2023-11-18T14:58:53;5.63;;;3.10;;
64881;SDS011;51375;44.836;38.672;2023-11-18T15:01:19;5.22;;;2.92;;
64881;SDS011;51375;44.836;38.672;2023-11-18T15:03:45;4.45;;;2.90;;
64881;SDS011;51375;44.836;38.672;2023-11-18T15:06:11;5.43;;;3.25;;
64881;SDS011;51375;44.836;38.672;2023-11-18T15:08:38;5.65;;;2.65;;
64881;SDS011;51375;44.836;38.672;2023-11-18T15:11:08;4.05;;;2.83;;
64881;SDS011;51375;44.836;38.672;2023-11-18T15:13:34;3.72;;;2.80;;
64881;SDS011;51375;44.836;38.672;2023-11-18T15:16:00;4.72;;;2.45;;
64881;SDS011;51375;44.836;38.672;2023-11-18T15:18:26;7.82;;;2.95;;
64881;SDS011;51375;44.836;38.672;2023-11-18T15:20:56;5.68;;;3.22;;
64881;SDS011;51375;44.836;38.672;2023-11-18T15:23:22;4.40;;;3.08;;
64881;SDS011;51375;44.836;38.672;2023-11-18T15:25:48;2.40;;;1.77;;
64881;SDS011;51375;44.836;38.672;2023-11-18T15:28:16;4.88;;;2.60;;
64881;SDS011;51375;44.836;38.672;2023-11-18T15:30:44;6.28;;;3.60;;
64881;SDS011;51375;44.836;38.672;2023-11-18T15:33:10;4.07;;;2.70;;
64881;SDS011;51375;44.836;38.672;2023-11-18T15:35:38;5.68;;;3.25;;
64881;SDS011;51375;44.836;38.672;2023-11-18T15:38:11;7.88;;;3.20;;
64881;SDS011;51375;44.836;38.672;2023-11-18T15:40:42;5.22;;;3.03;;
64881;SDS011;51375;44.836;38.672;2023-11-18T15:43:08;5.70;;;3.22;;
64881;SDS011;51375;44.836;38.672;2023-11-18T15:45:37;4.63;;;2.85;;
64881;SDS011;51375;44.836;38.672;2023-11-18T15:48:04;5.60;;;3.42;;
64881;SDS011;51375;44.836;38.672;2023-11-18T15:50:31;4.97;;;3.28;;
64881;SDS011;51375;44.836;38.672;2023-11-18T15:52:57;5.68;;;3.47;;
64881;SDS011;51375;44.836;38.672;2023-11-18T15:55:23;5.30;;;3.63;;
64881;SDS011;51375;44.836;38.672;2023-11-18T15:57:50;4.57;;;3.33;;
64881;SDS011;51375;44.836;38.672;2023-11-18T16:02:48;6.35;;;3.95;;
64881;SDS011;51375;44.836;38.672;2023-11-18T16:05:15;4.18;;;2.92;;